PGT35BN LWSK-LTFJ
Flight info
| Callsign | PGT35BN |
|---|---|
| Flight time | 1h 7m |
| Altitude | 19000 |
| Route | LWSK/34 SIN2D SIN T215 VELBA P127 ROVDO N739 ADORU UM19 IBODU IBOD1H LTFJ/24R |
| Aircraft | A320/M-SDE3FGHIRWY/LB1 |
Departure
| Time | 2026-04-26 14:21 |
|---|---|
| Airport | Skopje International Airport (LWSK) |
Arrival
| Time | 2026-04-26 15:28 |
|---|---|
| Airport | Istanbul Sabiha Gökçen International Airport (LTFJ) |
| Time | Latitude | Longitude | Altitude | Speed | Heading |
|---|---|---|---|---|---|
| 2026-04-26 13:33 | 41.96106 | 21.62584 | 783 ft | 0 kts | 74° |
| 2026-04-26 14:10 | 41.96101 | 21.62553 | 783 ft | 4 kts | 87° |
| 2026-04-26 14:10 | 41.96104 | 21.62521 | 783 ft | 4 kts | 136° |
| 2026-04-26 14:10 | 41.96114 | 21.62512 | 783 ft | 0 kts | 165° |
| 2026-04-26 14:15 | 41.96113 | 21.62512 | 783 ft | 1 kts | 165° |
| 2026-04-26 14:15 | 41.96078 | 21.62524 | 783 ft | 9 kts | 165° |
| 2026-04-26 14:15 | 41.96022 | 21.62524 | 782 ft | 7 kts | 226° |
| 2026-04-26 14:16 | 41.95991 | 21.62480 | 782 ft | 8 kts | 198° |
| 2026-04-26 14:16 | 41.95905 | 21.62503 | 782 ft | 17 kts | 165° |
| 2026-04-26 14:16 | 41.95767 | 21.62552 | 781 ft | 24 kts | 164° |
| 2026-04-26 14:16 | 41.95591 | 21.62614 | 780 ft | 28 kts | 165° |
| 2026-04-26 14:17 | 41.95401 | 21.62682 | 779 ft | 25 kts | 166° |
| 2026-04-26 14:17 | 41.95250 | 21.62734 | 778 ft | 16 kts | 166° |
| 2026-04-26 14:17 | 41.95166 | 21.62751 | 777 ft | 10 kts | 190° |
| 2026-04-26 14:17 | 41.95138 | 21.62684 | 778 ft | 7 kts | 256° |
| 2026-04-26 14:18 | 41.95136 | 21.62673 | 778 ft | 0 kts | 256° |
| 2026-04-26 14:19 | 41.95133 | 21.62654 | 778 ft | 6 kts | 256° |
| 2026-04-26 14:19 | 41.95117 | 21.62573 | 779 ft | 9 kts | 255° |
| 2026-04-26 14:19 | 41.95117 | 21.62508 | 779 ft | 6 kts | 317° |
| 2026-04-26 14:19 | 41.95133 | 21.62501 | 779 ft | 0 kts | 345° |
| 2026-04-26 14:20 | 41.95144 | 21.62497 | 779 ft | 15 kts | 345° |
| 2026-04-26 14:20 | 41.95335 | 21.62431 | 779 ft | 68 kts | 345° |
| 2026-04-26 14:20 | 41.96315 | 21.62091 | 786 ft | 147 kts | 345° |
| 2026-04-26 14:21 | 41.97421 | 21.61732 | 1111 ft | 166 kts | 347° |
| 2026-04-26 14:21 | 41.98515 | 21.61369 | 1856 ft | 160 kts | 345° |
| 2026-04-26 14:21 | 41.99635 | 21.60955 | 2162 ft | 176 kts | 345° |
| 2026-04-26 14:21 | 42.00445 | 21.60658 | 2354 ft | 187 kts | 342° |
| 2026-04-26 14:22 | 42.01670 | 21.59846 | 2531 ft | 206 kts | 326° |
| 2026-04-26 14:22 | 42.02770 | 21.58491 | 2732 ft | 225 kts | 310° |
| 2026-04-26 14:22 | 42.03585 | 21.56640 | 3178 ft | 234 kts | 293° |
| 2026-04-26 14:22 | 42.03968 | 21.54505 | 3818 ft | 236 kts | 276° |
| 2026-04-26 14:23 | 42.03872 | 21.52275 | 4323 ft | 248 kts | 260° |
| 2026-04-26 14:23 | 42.03197 | 21.50033 | 4510 ft | 272 kts | 239° |
| 2026-04-26 14:23 | 42.01877 | 21.48162 | 5267 ft | 281 kts | 218° |
| 2026-04-26 14:23 | 42.00119 | 21.46983 | 6146 ft | 287 kts | 197° |
| 2026-04-26 14:24 | 41.98125 | 21.46626 | 7031 ft | 291 kts | 185° |
| 2026-04-26 14:24 | 41.96088 | 21.46454 | 7886 ft | 295 kts | 184° |
| 2026-04-26 14:24 | 41.94058 | 21.46289 | 8788 ft | 295 kts | 184° |
| 2026-04-26 14:24 | 41.92020 | 21.46116 | 9711 ft | 296 kts | 184° |
| 2026-04-26 14:25 | 41.89914 | 21.45927 | 10233 ft | 310 kts | 185° |
| 2026-04-26 14:25 | 41.87721 | 21.45451 | 10599 ft | 329 kts | 194° |
| 2026-04-26 14:25 | 41.85413 | 21.45020 | 11069 ft | 344 kts | 178° |
| 2026-04-26 14:25 | 41.83045 | 21.45899 | 11265 ft | 367 kts | 150° |
| 2026-04-26 14:26 | 41.81121 | 21.48200 | 11634 ft | 377 kts | 123° |
| 2026-04-26 14:26 | 41.80125 | 21.51429 | 12239 ft | 378 kts | 97° |
| 2026-04-26 14:26 | 41.80243 | 21.54918 | 12901 ft | 377 kts | 72° |
| 2026-04-26 14:26 | 41.81263 | 21.58146 | 13545 ft | 378 kts | 61° |
| 2026-04-26 14:27 | 41.82432 | 21.61324 | 14172 ft | 382 kts | 61° |
| 2026-04-26 14:27 | 41.83617 | 21.64540 | 14787 ft | 386 kts | 61° |
| 2026-04-26 14:27 | 41.84742 | 21.67834 | 15363 ft | 392 kts | 66° |
| 2026-04-26 14:27 | 41.85637 | 21.71327 | 15909 ft | 398 kts | 71° |
| 2026-04-26 14:28 | 41.86361 | 21.74932 | 16452 ft | 403 kts | 74° |
| 2026-04-26 14:28 | 41.87003 | 21.78612 | 16967 ft | 408 kts | 75° |
| 2026-04-26 14:28 | 41.87631 | 21.82337 | 17476 ft | 412 kts | 75° |
| 2026-04-26 14:28 | 41.88285 | 21.86099 | 17949 ft | 416 kts | 74° |
| 2026-04-26 14:29 | 41.88981 | 21.89889 | 18430 ft | 420 kts | 73° |
| 2026-04-26 14:29 | 41.89703 | 21.93652 | 18909 ft | 423 kts | 73° |
| 2026-04-26 14:29 | 41.90462 | 21.97484 | 19374 ft | 427 kts | 72° |
| 2026-04-26 14:29 | 41.91236 | 22.01345 | 19823 ft | 430 kts | 72° |
| 2026-04-26 14:30 | 41.92018 | 22.05245 | 20272 ft | 434 kts | 72° |
| 2026-04-26 14:30 | 41.92797 | 22.09168 | 20723 ft | 437 kts | 73° |
| 2026-04-26 14:30 | 41.93572 | 22.13132 | 21149 ft | 440 kts | 73° |
| 2026-04-26 14:30 | 41.94348 | 22.17127 | 21557 ft | 443 kts | 73° |
| 2026-04-26 14:31 | 41.95124 | 22.21150 | 21950 ft | 447 kts | 73° |
| 2026-04-26 14:31 | 41.95905 | 22.25211 | 22364 ft | 450 kts | 73° |
| 2026-04-26 14:31 | 41.96688 | 22.29300 | 22773 ft | 453 kts | 73° |
| 2026-04-26 14:31 | 41.97459 | 22.33357 | 23139 ft | 456 kts | 75° |
| 2026-04-26 14:32 | 41.97947 | 22.37586 | 23493 ft | 461 kts | 84° |
| 2026-04-26 14:32 | 41.97953 | 22.41914 | 23849 ft | 465 kts | 91° |
| 2026-04-26 14:32 | 41.97832 | 22.46275 | 24192 ft | 468 kts | 91° |
| 2026-04-26 14:32 | 41.97716 | 22.50652 | 24561 ft | 469 kts | 90° |
| 2026-04-26 14:33 | 41.97603 | 22.55052 | 24878 ft | 472 kts | 90° |
| 2026-04-26 14:33 | 41.97489 | 22.59472 | 25209 ft | 475 kts | 90° |
| 2026-04-26 14:33 | 41.97372 | 22.63924 | 25545 ft | 477 kts | 90° |
| 2026-04-26 14:33 | 41.97252 | 22.68394 | 25870 ft | 479 kts | 90° |
| 2026-04-26 14:34 | 41.97126 | 22.72879 | 26189 ft | 481 kts | 91° |
| 2026-04-26 14:34 | 41.96995 | 22.77385 | 26495 ft | 483 kts | 91° |
| 2026-04-26 14:34 | 41.96859 | 22.81910 | 26786 ft | 485 kts | 91° |
| 2026-04-26 14:34 | 41.96720 | 22.86449 | 27070 ft | 487 kts | 90° |
| 2026-04-26 14:35 | 41.96790 | 22.90999 | 27320 ft | 488 kts | 84° |
| 2026-04-26 14:35 | 41.97026 | 22.95491 | 27596 ft | 489 kts | 84° |
| 2026-04-26 14:35 | 41.97267 | 23.00056 | 27861 ft | 492 kts | 84° |
| 2026-04-26 14:35 | 41.97507 | 23.04644 | 28123 ft | 493 kts | 84° |
| 2026-04-26 14:36 | 41.97744 | 23.09235 | 28496 ft | 492 kts | 84° |
| 2026-04-26 14:36 | 41.97976 | 23.13818 | 28874 ft | 491 kts | 84° |
| 2026-04-26 14:36 | 41.98206 | 23.18395 | 29239 ft | 490 kts | 84° |
| 2026-04-26 14:36 | 41.98435 | 23.22975 | 29582 ft | 490 kts | 84° |
| 2026-04-26 14:37 | 41.98661 | 23.27544 | 29922 ft | 490 kts | 84° |
| 2026-04-26 14:37 | 41.98879 | 23.32107 | 30291 ft | 489 kts | 85° |
| 2026-04-26 14:37 | 41.99095 | 23.36655 | 30650 ft | 488 kts | 85° |
| 2026-04-26 14:37 | 41.99313 | 23.41211 | 30967 ft | 487 kts | 85° |
| 2026-04-26 14:38 | 41.99527 | 23.45759 | 31267 ft | 487 kts | 85° |
| 2026-04-26 14:38 | 41.99739 | 23.50311 | 31582 ft | 487 kts | 85° |
| 2026-04-26 14:38 | 41.99950 | 23.54849 | 31894 ft | 486 kts | 85° |
| 2026-04-26 14:38 | 42.00158 | 23.59336 | 32190 ft | 486 kts | 85° |
| 2026-04-26 14:39 | 42.00367 | 23.63874 | 32488 ft | 486 kts | 85° |
| 2026-04-26 14:39 | 42.00574 | 23.68405 | 32799 ft | 486 kts | 85° |
| 2026-04-26 14:39 | 42.00776 | 23.72942 | 33102 ft | 485 kts | 85° |
| 2026-04-26 14:39 | 42.00975 | 23.77471 | 33398 ft | 485 kts | 85° |
| 2026-04-26 14:40 | 42.01173 | 23.81999 | 33658 ft | 486 kts | 85° |
| 2026-04-26 14:40 | 42.01373 | 23.86532 | 33936 ft | 485 kts | 85° |
| 2026-04-26 14:40 | 42.01572 | 23.91068 | 34208 ft | 485 kts | 85° |
| 2026-04-26 14:40 | 42.01770 | 23.95599 | 34485 ft | 485 kts | 85° |
| 2026-04-26 14:41 | 42.01965 | 24.00125 | 34753 ft | 485 kts | 85° |
| 2026-04-26 14:41 | 42.02158 | 24.04659 | 34941 ft | 485 kts | 85° |
| 2026-04-26 14:41 | 42.02349 | 24.09207 | 34974 ft | 488 kts | 85° |
| 2026-04-26 14:42 | 42.02722 | 24.18326 | 34970 ft | 488 kts | 85° |
| 2026-04-26 14:42 | 42.03091 | 24.27457 | 34968 ft | 488 kts | 85° |
| 2026-04-26 14:43 | 42.03455 | 24.36566 | 34965 ft | 488 kts | 85° |
| 2026-04-26 14:43 | 42.03809 | 24.45625 | 34959 ft | 487 kts | 85° |
| 2026-04-26 14:44 | 42.04154 | 24.54728 | 34958 ft | 487 kts | 85° |
| 2026-04-26 14:44 | 42.04492 | 24.63815 | 34959 ft | 486 kts | 85° |
| 2026-04-26 14:45 | 42.04822 | 24.72902 | 34964 ft | 485 kts | 85° |
| 2026-04-26 14:45 | 42.05143 | 24.81981 | 34966 ft | 485 kts | 85° |
| 2026-04-26 14:46 | 42.05016 | 24.90992 | 34965 ft | 486 kts | 97° |
| 2026-04-26 14:46 | 42.04110 | 25.00004 | 34963 ft | 486 kts | 97° |
| 2026-04-26 14:47 | 42.03193 | 25.09007 | 34966 ft | 485 kts | 97° |
| 2026-04-26 14:47 | 42.02273 | 25.17997 | 34968 ft | 485 kts | 97° |
| 2026-04-26 14:48 | 42.01358 | 25.26980 | 34977 ft | 484 kts | 97° |
| 2026-04-26 14:48 | 42.00426 | 25.35960 | 34972 ft | 483 kts | 97° |
| 2026-04-26 14:49 | 41.99494 | 25.44832 | 34965 ft | 482 kts | 97° |
| 2026-04-26 14:49 | 41.98554 | 25.53761 | 34963 ft | 482 kts | 97° |
| 2026-04-26 14:50 | 41.97612 | 25.62676 | 34959 ft | 481 kts | 97° |
| 2026-04-26 14:50 | 41.96663 | 25.71589 | 34956 ft | 481 kts | 97° |
| 2026-04-26 14:51 | 41.95699 | 25.80490 | 34951 ft | 481 kts | 97° |
| 2026-04-26 14:51 | 41.94731 | 25.89376 | 34948 ft | 480 kts | 97° |
| 2026-04-26 14:52 | 41.93769 | 25.98204 | 34943 ft | 480 kts | 97° |
| 2026-04-26 14:52 | 41.92793 | 26.07079 | 34939 ft | 481 kts | 97° |
| 2026-04-26 14:53 | 41.91803 | 26.15965 | 34940 ft | 481 kts | 97° |
| 2026-04-26 14:53 | 41.90804 | 26.24853 | 34941 ft | 481 kts | 97° |
| 2026-04-26 14:54 | 41.89804 | 26.33719 | 34946 ft | 480 kts | 97° |
| 2026-04-26 14:54 | 41.88797 | 26.42594 | 34947 ft | 480 kts | 97° |
| 2026-04-26 14:55 | 41.87689 | 26.51413 | 34950 ft | 480 kts | 104° |
| 2026-04-26 14:55 | 41.85138 | 26.59599 | 34950 ft | 480 kts | 122° |
| 2026-04-26 14:56 | 41.81080 | 26.66682 | 34953 ft | 479 kts | 130° |
| 2026-04-26 14:56 | 41.76821 | 26.73569 | 34961 ft | 479 kts | 130° |
| 2026-04-26 14:57 | 41.72575 | 26.80445 | 34957 ft | 479 kts | 130° |
| 2026-04-26 14:57 | 41.68320 | 26.87285 | 34956 ft | 478 kts | 130° |
| 2026-04-26 14:58 | 41.64054 | 26.94101 | 34958 ft | 477 kts | 130° |
| 2026-04-26 14:58 | 41.59801 | 27.00905 | 34962 ft | 477 kts | 130° |
| 2026-04-26 14:59 | 41.55710 | 27.07868 | 34961 ft | 477 kts | 121° |
| 2026-04-26 14:59 | 41.52809 | 27.15804 | 34964 ft | 475 kts | 113° |
| 2026-04-26 15:00 | 41.50138 | 27.23805 | 34962 ft | 475 kts | 113° |
| 2026-04-26 15:00 | 41.47427 | 27.31850 | 34962 ft | 475 kts | 114° |
| 2026-04-26 15:01 | 41.44721 | 27.39881 | 34961 ft | 475 kts | 113° |
| 2026-04-26 15:01 | 41.42018 | 27.47907 | 34965 ft | 474 kts | 114° |
| 2026-04-26 15:02 | 41.39319 | 27.55872 | 34968 ft | 474 kts | 114° |
| 2026-04-26 15:02 | 41.36921 | 27.64043 | 34949 ft | 474 kts | 103° |
| 2026-04-26 15:03 | 41.36262 | 27.72725 | 34942 ft | 473 kts | 85° |
| 2026-04-26 15:03 | 41.36934 | 27.81429 | 34939 ft | 473 kts | 82° |
| 2026-04-26 15:04 | 41.37618 | 27.90163 | 34946 ft | 474 kts | 82° |
| 2026-04-26 15:04 | 41.38270 | 27.98913 | 34950 ft | 475 kts | 84° |
| 2026-04-26 15:05 | 41.37854 | 28.07680 | 34958 ft | 477 kts | 100° |
| 2026-04-26 15:05 | 41.36560 | 28.16366 | 33765 ft | 483 kts | 100° |
| 2026-04-26 15:05 | 41.35913 | 28.20729 | 32759 ft | 489 kts | 100° |
| 2026-04-26 15:06 | 41.35255 | 28.25179 | 31780 ft | 489 kts | 100° |
| 2026-04-26 15:06 | 41.34599 | 28.29601 | 30641 ft | 483 kts | 100° |
| 2026-04-26 15:06 | 41.33952 | 28.33945 | 29557 ft | 476 kts | 100° |
| 2026-04-26 15:06 | 41.33308 | 28.38247 | 28342 ft | 472 kts | 101° |
| 2026-04-26 15:07 | 41.32024 | 28.46775 | 26908 ft | 462 kts | 101° |
| 2026-04-26 15:07 | 41.31404 | 28.50891 | 26739 ft | 447 kts | 101° |
| 2026-04-26 15:07 | 41.30879 | 28.54913 | 26480 ft | 437 kts | 95° |
| 2026-04-26 15:08 | 41.30768 | 28.58928 | 26231 ft | 432 kts | 88° |
| 2026-04-26 15:08 | 41.30787 | 28.62914 | 25985 ft | 429 kts | 89° |
| 2026-04-26 15:08 | 41.30799 | 28.66890 | 25575 ft | 427 kts | 89° |
| 2026-04-26 15:08 | 41.30802 | 28.70826 | 25112 ft | 424 kts | 89° |
| 2026-04-26 15:09 | 41.30801 | 28.74732 | 24639 ft | 421 kts | 89° |
| 2026-04-26 15:09 | 41.30799 | 28.78563 | 24198 ft | 418 kts | 89° |
| 2026-04-26 15:09 | 41.30796 | 28.82423 | 23756 ft | 416 kts | 89° |
| 2026-04-26 15:09 | 41.30792 | 28.86268 | 23306 ft | 413 kts | 89° |
| 2026-04-26 15:10 | 41.30789 | 28.90085 | 22860 ft | 411 kts | 89° |
| 2026-04-26 15:10 | 41.30787 | 28.91367 | 22708 ft | 410 kts | 89° |
| 2026-04-26 15:10 | 41.30779 | 28.96359 | 22122 ft | 406 kts | 89° |
| 2026-04-26 15:10 | 41.30774 | 29.00114 | 21685 ft | 403 kts | 89° |
| 2026-04-26 15:11 | 41.30766 | 29.03833 | 21250 ft | 401 kts | 89° |
| 2026-04-26 15:11 | 41.30759 | 29.07534 | 20828 ft | 398 kts | 89° |
| 2026-04-26 15:11 | 41.30751 | 29.11202 | 20407 ft | 395 kts | 89° |
| 2026-04-26 15:11 | 41.30743 | 29.14811 | 20221 ft | 385 kts | 89° |
| 2026-04-26 15:12 | 41.30731 | 29.18319 | 20092 ft | 373 kts | 89° |
| 2026-04-26 15:12 | 41.30721 | 29.21720 | 19947 ft | 361 kts | 89° |
| 2026-04-26 15:12 | 41.30725 | 29.24991 | 19629 ft | 357 kts | 89° |
| 2026-04-26 15:12 | 41.30745 | 29.28285 | 19227 ft | 354 kts | 88° |
| 2026-04-26 15:13 | 41.30773 | 29.31558 | 18807 ft | 353 kts | 88° |
| 2026-04-26 15:13 | 41.30803 | 29.34812 | 18417 ft | 351 kts | 88° |
| 2026-04-26 15:13 | 41.30851 | 29.38058 | 18055 ft | 348 kts | 84° |
| 2026-04-26 15:13 | 41.31343 | 29.41189 | 17667 ft | 344 kts | 68° |
| 2026-04-26 15:14 | 41.32400 | 29.44007 | 17257 ft | 339 kts | 53° |
| 2026-04-26 15:14 | 41.33940 | 29.46351 | 16869 ft | 334 kts | 38° |
| 2026-04-26 15:14 | 41.35799 | 29.48163 | 16510 ft | 330 kts | 31° |
| 2026-04-26 15:14 | 41.37693 | 29.49886 | 16145 ft | 329 kts | 31° |
| 2026-04-26 15:15 | 41.39579 | 29.51604 | 15800 ft | 327 kts | 31° |
| 2026-04-26 15:15 | 41.41452 | 29.53310 | 15437 ft | 326 kts | 31° |
| 2026-04-26 15:15 | 41.43289 | 29.54986 | 15108 ft | 323 kts | 32° |
| 2026-04-26 15:15 | 41.45130 | 29.56678 | 14642 ft | 318 kts | 33° |
| 2026-04-26 15:16 | 41.46674 | 29.58799 | 14317 ft | 321 kts | 55° |
| 2026-04-26 15:16 | 41.47558 | 29.61523 | 14076 ft | 322 kts | 76° |
| 2026-04-26 15:16 | 41.47650 | 29.64500 | 13852 ft | 323 kts | 99° |
| 2026-04-26 15:16 | 41.46914 | 29.67309 | 13611 ft | 322 kts | 122° |
| 2026-04-26 15:17 | 41.45478 | 29.69536 | 13331 ft | 316 kts | 144° |
| 2026-04-26 15:17 | 41.44250 | 29.70552 | 13074 ft | 313 kts | 158° |
| 2026-04-26 15:17 | 41.41451 | 29.71295 | 12576 ft | 305 kts | 184° |
| 2026-04-26 15:17 | 41.39318 | 29.71198 | 12171 ft | 306 kts | 185° |
| 2026-04-26 15:18 | 41.37184 | 29.71093 | 11784 ft | 307 kts | 185° |
| 2026-04-26 15:18 | 41.35045 | 29.70989 | 11387 ft | 307 kts | 185° |
| 2026-04-26 15:18 | 41.32908 | 29.70888 | 10999 ft | 307 kts | 185° |
| 2026-04-26 15:18 | 41.30777 | 29.70790 | 10592 ft | 307 kts | 185° |
| 2026-04-26 15:19 | 41.28660 | 29.70689 | 10327 ft | 301 kts | 185° |
| 2026-04-26 15:19 | 41.26578 | 29.70590 | 9696 ft | 298 kts | 185° |
| 2026-04-26 15:19 | 41.24533 | 29.70495 | 9225 ft | 290 kts | 185° |
| 2026-04-26 15:19 | 41.22513 | 29.70397 | 8791 ft | 290 kts | 185° |
| 2026-04-26 15:20 | 41.20511 | 29.70301 | 8366 ft | 291 kts | 185° |
| 2026-04-26 15:20 | 41.18484 | 29.70204 | 7932 ft | 292 kts | 185° |
| 2026-04-26 15:20 | 41.16451 | 29.70110 | 7492 ft | 292 kts | 185° |
| 2026-04-26 15:20 | 41.14420 | 29.70017 | 7139 ft | 290 kts | 185° |
| 2026-04-26 15:21 | 41.12398 | 29.69922 | 6724 ft | 289 kts | 185° |
| 2026-04-26 15:21 | 41.10378 | 29.69828 | 6267 ft | 292 kts | 185° |
| 2026-04-26 15:21 | 41.08393 | 29.69738 | 6140 ft | 278 kts | 185° |
| 2026-04-26 15:21 | 41.06532 | 29.69642 | 5983 ft | 258 kts | 188° |
| 2026-04-26 15:22 | 41.04859 | 29.69036 | 5644 ft | 242 kts | 211° |
| 2026-04-26 15:22 | 41.03546 | 29.67724 | 5533 ft | 235 kts | 231° |
| 2026-04-26 15:22 | 41.02651 | 29.65925 | 5224 ft | 235 kts | 247° |
| 2026-04-26 15:22 | 41.01946 | 29.63971 | 4962 ft | 232 kts | 247° |
| 2026-04-26 15:23 | 41.01263 | 29.62092 | 4897 ft | 219 kts | 247° |
| 2026-04-26 15:23 | 41.00624 | 29.60342 | 4822 ft | 205 kts | 246° |
| 2026-04-26 15:23 | 41.00007 | 29.58651 | 4686 ft | 203 kts | 247° |
| 2026-04-26 15:23 | 40.99398 | 29.56976 | 4466 ft | 201 kts | 247° |
| 2026-04-26 15:24 | 40.98791 | 29.55315 | 4256 ft | 201 kts | 247° |
| 2026-04-26 15:24 | 40.98194 | 29.53680 | 4050 ft | 196 kts | 246° |
| 2026-04-26 15:24 | 40.97608 | 29.52079 | 3943 ft | 191 kts | 246° |
| 2026-04-26 15:24 | 40.97029 | 29.50491 | 3722 ft | 193 kts | 246° |
| 2026-04-26 15:25 | 40.96440 | 29.48879 | 3420 ft | 195 kts | 246° |
| 2026-04-26 15:25 | 40.96042 | 29.47790 | 3212 ft | 193 kts | 246° |
| 2026-04-26 15:25 | 40.95279 | 29.45709 | 2853 ft | 185 kts | 246° |
| 2026-04-26 15:25 | 40.94735 | 29.44223 | 2556 ft | 172 kts | 246° |
| 2026-04-26 15:26 | 40.94229 | 29.42841 | 2295 ft | 162 kts | 245° |
| 2026-04-26 15:26 | 40.93753 | 29.41542 | 2071 ft | 151 kts | 245° |
| 2026-04-26 15:26 | 40.93310 | 29.40332 | 1834 ft | 142 kts | 244° |
| 2026-04-26 15:26 | 40.92885 | 29.39174 | 1613 ft | 138 kts | 243° |
| 2026-04-26 15:27 | 40.92471 | 29.38036 | 1421 ft | 136 kts | 244° |
| 2026-04-26 15:27 | 40.92056 | 29.36912 | 1222 ft | 135 kts | 243° |
| 2026-04-26 15:27 | 40.91634 | 29.35803 | 1045 ft | 135 kts | 244° |
| 2026-04-26 15:27 | 40.91228 | 29.34675 | 798 ft | 136 kts | 244° |
| 2026-04-26 15:28 | 40.90820 | 29.33551 | 577 ft | 136 kts | 244° |
| 2026-04-26 15:28 | 40.90409 | 29.32428 | 346 ft | 136 kts | 244° |
| 2026-04-26 15:28 | 40.90051 | 29.31457 | 318 ft | 83 kts | 244° |
| 2026-04-26 15:28 | 40.89877 | 29.30984 | 321 ft | 43 kts | 244° |
| 2026-04-26 15:29 | 40.89813 | 29.30667 | 322 ft | 28 kts | 270° |
| 2026-04-26 15:29 | 40.89822 | 29.30487 | 322 ft | 16 kts | 274° |
| 2026-04-26 15:29 | 40.89913 | 29.30509 | 321 ft | 9 kts | 65° |
| 2026-04-26 15:30 | 40.89965 | 29.30651 | 319 ft | 9 kts | 63° |
| 2026-04-26 15:30 | 40.90002 | 29.30750 | 319 ft | 15 kts | 64° |
| 2026-04-26 15:30 | 40.90051 | 29.30883 | 319 ft | 14 kts | 64° |
| 2026-04-26 15:31 | 40.90123 | 29.30928 | 319 ft | 12 kts | 349° |
| 2026-04-26 15:31 | 40.90245 | 29.30893 | 320 ft | 8 kts | 52° |
| 2026-04-26 15:31 | 40.90261 | 29.30950 | 321 ft | 5 kts | 105° |
| 2026-04-26 15:32 | 40.90224 | 29.30975 | 321 ft | 4 kts | 154° |
| 2026-04-26 15:32 | 40.90193 | 29.30995 | 321 ft | 0 kts | 154° |